Time;durP1;ratioP1;P1;durP2;ratioP2;P2;SDS_P1;SDS_P2;PMS_P1;PMS_P2;Temp;Humidity;BMP_temperature;BMP_pressure;BME280_temperature;BME280_humidity;BME280_pressure;Samples;Min_cycle;Max_cycle;Signal;HPM_P1;HPM_P2
2022/04/22 00:00:32;;;;;;;11.88;10.88;;;;;;;;;;5011220;28;20061;-76
2022/04/22 00:02:58;;;;;;;12.02;10.93;;;;;;;;;;5014803;28;20486;-73
2022/04/22 00:05:24;;;;;;;10.85;9.80;;;;;;;;;;5009832;28;20072;-75
2022/04/22 00:07:50;;;;;;;9.65;8.75;;;;;;;;;;5010471;28;20050;-74
2022/04/22 00:10:16;;;;;;;10.13;9.13;;;;;;;;;;5011547;28;20042;-74
2022/04/22 00:12:43;;;;;;;10.50;9.60;;;;;;;;;;5011267;28;20053;-76
2022/04/22 00:15:09;;;;;;;11.13;10.13;;;;;;;;;;5009309;28;20041;-75
2022/04/22 00:17:35;;;;;;;10.90;9.95;;;;;;;;;;5010455;28;20088;-76
2022/04/22 00:20:01;;;;;;;11.40;10.30;;;;;;;;;;5009080;28;20121;-75
2022/04/22 00:22:28;;;;;;;10.27;9.40;;;;;;;;;;4992646;28;20153;-75
2022/04/22 00:24:54;;;;;;;10.30;9.38;;;;;;;;;;5009003;28;20128;-76
2022/04/22 00:27:20;;;;;;;11.43;10.40;;;;;;;;;;5010422;28;20116;-75
2022/04/22 00:29:46;;;;;;;10.85;9.80;;;;;;;;;;5010136;28;20124;-76
2022/04/22 00:32:12;;;;;;;11.50;10.30;;;;;;;;;;5010458;28;20142;-75
2022/04/22 00:34:38;;;;;;;12.60;10.88;;;;;;;;;;5008987;28;20457;-75
2022/04/22 00:37:04;;;;;;;11.98;10.93;;;;;;;;;;5008682;28;20046;-75
2022/04/22 00:39:30;;;;;;;12.23;10.70;;;;;;;;;;5010415;28;20042;-75
2022/04/22 00:41:56;;;;;;;11.93;10.82;;;;;;;;;;5009808;28;20049;-75
2022/04/22 00:44:22;;;;;;;14.10;10.82;;;;;;;;;;5010106;28;20641;-76
2022/04/22 00:46:48;;;;;;;12.85;11.65;;;;;;;;;;4992233;28;20069;-76
2022/04/22 00:49:15;;;;;;;15.82;12.95;;;;;;;;;;5010193;28;20049;-75
2022/04/22 00:51:41;;;;;;;16.00;13.05;;;;;;;;;;5010293;28;20077;-74
2022/04/22 00:54:07;;;;;;;17.15;12.90;;;;;;;;;;5008516;28;20038;-75
2022/04/22 00:56:33;;;;;;;19.40;13.23;;;;;;;;;;5010034;28;20058;-75
2022/04/22 00:58:59;;;;;;;17.02;13.82;;;;;;;;;;5008567;28;20049;-76
2022/04/22 01:01:25;;;;;;;16.42;14.05;;;;;;;;;;5008737;28;20038;-75
2022/04/22 01:12:08;;;;;;;15.05;13.50;;;;;;;;;;5008623;28;20534;-73
2022/04/22 01:14:35;;;;;;;15.93;12.82;;;;;;;;;;5009831;28;20046;-75
2022/04/22 01:17:01;;;;;;;14.32;12.90;;;;;;;;;;5007952;28;20042;-75
2022/04/22 01:19:27;;;;;;;14.32;12.82;;;;;;;;;;5009797;28;20125;-75
2022/04/22 01:21:53;;;;;;;17.52;14.50;;;;;;;;;;4991916;28;20518;-75
2022/04/22 01:24:19;;;;;;;15.27;13.57;;;;;;;;;;5008395;28;20042;-75
2022/04/22 01:26:45;;;;;;;14.75;13.02;;;;;;;;;;5009821;28;20414;-76
2022/04/22 01:29:12;;;;;;;15.45;13.25;;;;;;;;;;5009516;28;20046;-75
2022/04/22 01:31:38;;;;;;;21.55;15.30;;;;;;;;;;5009861;28;20037;-76
2022/04/22 01:34:04;;;;;;;20.30;14.80;;;;;;;;;;5009650;28;20050;-75
2022/04/22 01:36:30;;;;;;;16.25;13.77;;;;;;;;;;5009742;28;20422;-75
2022/04/22 01:38:56;;;;;;;15.50;13.18;;;;;;;;;;5009203;28;20042;-75
2022/04/22 01:41:22;;;;;;;19.08;15.00;;;;;;;;;;5008336;28;20073;-75
2022/04/22 01:43:47;;;;;;;15.52;13.73;;;;;;;;;;4991868;28;20058;-75
2022/04/22 01:46:15;;;;;;;13.70;12.02;;;;;;;;;;4975829;28;20432;-75
2022/04/22 01:48:42;;;;;;;16.50;14.80;;;;;;;;;;4994365;28;20053;-76
2022/04/22 01:51:08;;;;;;;15.18;13.05;;;;;;;;;;5009957;28;20034;-75
2022/04/22 01:53:34;;;;;;;14.02;11.35;;;;;;;;;;5009343;28;20046;-75
2022/04/22 01:56:00;;;;;;;13.90;11.30;;;;;;;;;;5009513;28;20096;-73
2022/04/22 01:58:26;;;;;;;12.80;11.52;;;;;;;;;;5008358;28;20593;-77
2022/04/22 02:00:52;;;;;;;11.23;10.23;;;;;;;;;;4993330;28;20046;-75
2022/04/22 02:03:18;;;;;;;10.35;9.32;;;;;;;;;;4995150;28;20092;-74
2022/04/22 02:05:44;;;;;;;9.18;8.38;;;;;;;;;;5013037;28;20104;-75
2022/04/22 02:08:10;;;;;;;9.20;8.23;;;;;;;;;;5012722;28;20467;-75
2022/04/22 02:10:37;;;;;;;12.38;9.07;;;;;;;;;;5011766;28;20566;-74
2022/04/22 02:13:03;;;;;;;9.88;8.98;;;;;;;;;;5012650;28;20104;-75
2022/04/22 02:15:29;;;;;;;9.38;8.48;;;;;;;;;;5012796;28;20042;-76
2022/04/22 02:17:55;;;;;;;9.55;8.40;;;;;;;;;;4995143;28;20044;-76
2022/04/22 02:20:22;;;;;;;9.95;8.88;;;;;;;;;;5011872;28;20494;-78
2022/04/22 02:22:48;;;;;;;8.93;8.23;;;;;;;;;;5012506;28;20522;-75
2022/04/22 02:25:14;;;;;;;8.48;7.70;;;;;;;;;;5011577;28;20049;-75
2022/04/22 02:30:24;;;;;;;9.57;8.55;;;;;;;;;;5011260;28;20053;-76
2022/04/22 02:32:50;;;;;;;9.48;8.40;;;;;;;;;;5011134;28;20045;-75
2022/04/22 02:35:18;;;;;;;10.10;8.85;;;;;;;;;;5012469;28;20139;-75
2022/04/22 02:37:44;;;;;;;10.73;8.35;;;;;;;;;;4994996;28;20507;-75
2022/04/22 02:40:10;;;;;;;9.77;8.98;;;;;;;;;;5010938;28;20121;-74
2022/04/22 02:45:27;;;;;;;8.98;8.18;;;;;;;;;;5012846;28;20041;-78
2022/04/22 02:47:54;;;;;;;9.30;8.35;;;;;;;;;;4995121;28;20037;-79
2022/04/22 02:50:20;;;;;;;9.90;8.75;;;;;;;;;;5011517;28;20045;-74
2022/04/22 02:52:46;;;;;;;9.90;8.68;;;;;;;;;;5012276;28;20445;-74
2022/04/22 02:55:12;;;;;;;12.27;9.68;;;;;;;;;;5013166;28;20077;-75
2022/04/22 02:57:43;;;;;;;9.63;8.73;;;;;;;;;;4997880;28;20082;-74
2022/04/22 03:00:11;;;;;;;11.38;8.95;;;;;;;;;;5016620;28;20046;-74
2022/04/22 03:02:37;;;;;;;12.13;9.63;;;;;;;;;;5017975;28;20045;-73
2022/04/22 03:05:03;;;;;;;10.52;8.98;;;;;;;;;;5013878;28;20053;-74
2022/04/22 03:07:29;;;;;;;9.45;8.60;;;;;;;;;;5013373;28;20034;-75
2022/04/22 03:09:55;;;;;;;12.73;9.88;;;;;;;;;;5008252;28;20096;-79
2022/04/22 03:12:20;;;;;;;11.90;10.68;;;;;;;;;;4969386;28;20046;-77
2022/04/22 03:14:47;;;;;;;16.55;12.68;;;;;;;;;;4997248;28;20038;-79
2022/04/22 03:17:13;;;;;;;13.70;11.80;;;;;;;;;;5003405;28;20042;-78
2022/04/22 03:19:39;;;;;;;17.05;12.25;;;;;;;;;;5015542;28;20042;-78
2022/04/22 03:22:06;;;;;;;14.70;12.90;;;;;;;;;;5010344;28;20085;-79
2022/04/22 03:24:31;;;;;;;14.75;13.18;;;;;;;;;;5010726;28;20049;-78
2022/04/22 03:26:57;;;;;;;15.50;13.88;;;;;;;;;;5011726;28;20049;-79
2022/04/22 03:29:24;;;;;;;20.48;15.35;;;;;;;;;;5011637;28;20095;-79
2022/04/22 03:31:49;;;;;;;23.92;14.77;;;;;;;;;;5012855;28;20537;-79
2022/04/22 03:34:16;;;;;;;23.15;15.15;;;;;;;;;;5003476;28;20042;-80
2022/04/22 03:36:42;;;;;;;18.05;14.88;;;;;;;;;;4998266;28;20514;-78
2022/04/22 03:39:09;;;;;;;19.88;15.73;;;;;;;;;;5010137;28;20132;-78
2022/04/22 03:41:35;;;;;;;25.63;17.27;;;;;;;;;;4993836;28;20046;-79
2022/04/22 03:44:01;;;;;;;20.05;17.92;;;;;;;;;;5009361;28;20577;-78
2022/04/22 03:46:27;;;;;;;21.85;16.70;;;;;;;;;;5010960;28;20437;-76
2022/04/22 03:48:56;;;;;;;23.50;18.58;;;;;;;;;;5010741;28;20045;-78
2022/04/22 03:51:22;;;;;;;22.70;19.00;;;;;;;;;;5011058;28;20042;-78
2022/04/22 03:53:48;;;;;;;26.17;18.95;;;;;;;;;;5010841;28;20104;-78
2022/04/22 03:58:59;;;;;;;28.88;19.42;;;;;;;;;;5010428;28;20046;-76
2022/04/22 04:01:27;;;;;;;22.75;14.55;;;;;;;;;;5010678;28;20053;-77
2022/04/22 04:03:54;;;;;;;19.27;13.98;;;;;;;;;;5007730;28;20054;-78
2022/04/22 04:06:20;;;;;;;18.73;11.93;;;;;;;;;;5009005;28;20033;-77
2022/04/22 04:15:57;;;;;;;13.60;11.52;;;;;;;;;;5010533;28;20050;-78
2022/04/22 04:17:02;;;;;;;17.35;13.77;;;;;;;;;;5009905;28;20041;-79
2022/04/22 04:24:57;;;;;;;17.67;13.10;;;;;;;;;;5009306;28;20493;-79
2022/04/22 04:27:23;;;;;;;16.35;12.40;;;;;;;;;;5009356;28;20045;-80
2022/04/22 04:29:49;;;;;;;22.70;14.00;;;;;;;;;;5010706;28;20184;-79
2022/04/22 04:32:17;;;;;;;17.98;12.85;;;;;;;;;;5011008;28;20041;-82
2022/04/22 04:34:45;;;;;;;18.75;13.38;;;;;;;;;;4994147;28;20050;-79
2022/04/22 04:37:12;;;;;;;16.70;13.25;;;;;;;;;;4993269;28;20052;-78
2022/04/22 04:39:39;;;;;;;16.83;13.15;;;;;;;;;;4992648;28;20131;-76
2022/04/22 04:42:05;;;;;;;20.23;13.50;;;;;;;;;;5009740;28;20041;-78
2022/04/22 04:44:30;;;;;;;15.85;13.30;;;;;;;;;;5009896;28;20045;-78
2022/04/22 04:46:56;;;;;;;19.35;14.65;;;;;;;;;;5010092;28;20084;-78
2022/04/22 04:49:22;;;;;;;15.18;13.38;;;;;;;;;;4992401;28;20057;-77
2022/04/22 04:51:48;;;;;;;17.92;13.38;;;;;;;;;;5008673;28;20037;-78
2022/04/22 04:54:14;;;;;;;14.32;12.30;;;;;;;;;;5009658;28;20052;-78
2022/04/22 04:56:40;;;;;;;13.65;11.25;;;;;;;;;;5008477;28;20049;-77
2022/04/22 04:59:05;;;;;;;14.80;12.68;;;;;;;;;;4992157;28;20041;-78
2022/04/22 05:01:32;;;;;;;12.48;11.27;;;;;;;;;;5010117;28;20037;-79
2022/04/22 05:03:58;;;;;;;11.65;10.55;;;;;;;;;;5009597;28;20053;-78
2022/04/22 05:06:24;;;;;;;18.65;12.38;;;;;;;;;;5009755;28;20045;-78
2022/04/22 05:08:50;;;;;;;10.68;9.68;;;;;;;;;;5008401;28;20042;-80
2022/04/22 05:11:15;;;;;;;15.73;11.05;;;;;;;;;;4991943;28;20045;-80
2022/04/22 05:13:41;;;;;;;11.73;9.43;;;;;;;;;;5008696;28;20056;-80
2022/04/22 05:16:07;;;;;;;10.05;9.07;;;;;;;;;;5010367;28;20049;-79
2022/04/22 05:18:33;;;;;;;10.40;9.38;;;;;;;;;;5010615;28;20046;-80
2022/04/22 05:21:00;;;;;;;9.60;8.65;;;;;;;;;;5021301;28;20049;-80
2022/04/22 05:23:26;;;;;;;8.68;7.90;;;;;;;;;;5009601;28;20057;-79
2022/04/22 05:25:52;;;;;;;11.13;7.53;;;;;;;;;;5010102;28;20112;-80
2022/04/22 05:28:18;;;;;;;8.88;8.07;;;;;;;;;;5009445;28;20132;-80
2022/04/22 05:33:28;;;;;;;6.90;6.30;;;;;;;;;;5009762;28;20046;-80
2022/04/22 05:35:54;;;;;;;6.22;5.78;;;;;;;;;;5011868;28;20511;-79
2022/04/22 05:38:22;;;;;;;6.20;5.63;;;;;;;;;;5013420;28;20049;-78
2022/04/22 05:40:48;;;;;;;5.45;5.00;;;;;;;;;;5013221;28;20107;-79
2022/04/22 05:43:14;;;;;;;7.65;5.03;;;;;;;;;;4995677;28;20578;-79
2022/04/22 05:45:40;;;;;;;15.60;6.95;;;;;;;;;;5013365;28;20176;-80
2022/04/22 05:48:06;;;;;;;11.25;6.03;;;;;;;;;;4995595;28;20053;-80
2022/04/22 05:50:32;;;;;;;6.45;5.88;;;;;;;;;;5013452;28;20121;-79
2022/04/22 05:52:58;;;;;;;11.20;7.05;;;;;;;;;;4995670;28;20517;-79
2022/04/22 05:55:24;;;;;;;7.15;5.80;;;;;;;;;;5012085;28;20040;-79
2022/04/22 05:57:52;;;;;;;8.20;6.00;;;;;;;;;;5013038;28;20058;-79
2022/04/22 06:00:19;;;;;;;5.82;5.43;;;;;;;;;;5013092;28;20053;-80
2022/04/22 06:02:45;;;;;;;6.07;5.53;;;;;;;;;;5011384;28;20522;-80
2022/04/22 06:05:12;;;;;;;5.75;5.05;;;;;;;;;;5002189;28;20034;-79
2022/04/22 06:07:38;;;;;;;7.75;5.10;;;;;;;;;;5006804;28;20384;-79
2022/04/22 06:12:49;;;;;;;6.03;5.10;;;;;;;;;;4993696;28;20595;-80
2022/04/22 06:15:14;;;;;;;5.47;5.03;;;;;;;;;;4995900;28;20073;-77
2022/04/22 06:17:40;;;;;;;6.00;4.65;;;;;;;;;;5006372;28;20062;-81
2022/04/22 06:20:06;;;;;;;4.85;4.35;;;;;;;;;;4995364;28;20046;-80
2022/04/22 06:22:32;;;;;;;5.38;4.88;;;;;;;;;;4994031;28;20610;-81
2022/04/22 06:24:58;;;;;;;6.50;4.55;;;;;;;;;;4993332;28;20133;-80
2022/04/22 06:27:28;;;;;;;5.13;4.70;;;;;;;;;;4995889;28;20044;-71
2022/04/22 06:29:54;;;;;;;5.43;4.80;;;;;;;;;;5010389;28;20046;-72
2022/04/22 06:32:21;;;;;;;5.38;4.07;;;;;;;;;;5013959;28;20041;-71
2022/04/22 06:34:47;;;;;;;10.65;5.28;;;;;;;;;;5009480;28;20053;-72
2022/04/22 06:37:13;;;;;;;4.53;4.13;;;;;;;;;;5011599;28;20117;-73
2022/04/22 06:47:56;;;;;;;4.55;4.13;;;;;;;;;;5011335;28;20473;-71
2022/04/22 06:50:22;;;;;;;5.72;3.97;;;;;;;;;;5003571;28;20049;-70
2022/04/22 06:52:48;;;;;;;5.28;4.10;;;;;;;;;;4990495;28;20100;-67
2022/04/22 06:55:14;;;;;;;4.50;4.10;;;;;;;;;;5009988;28;20058;-70
2022/04/22 06:57:40;;;;;;;4.45;4.10;;;;;;;;;;5004203;28;20423;-71
2022/04/22 07:00:16;;;;;;;4.75;4.28;;;;;;;;;;5012502;28;20058;-71
2022/04/22 07:02:42;;;;;;;4.45;4.15;;;;;;;;;;5010037;28;20108;-71
2022/04/22 07:05:09;;;;;;;9.05;4.03;;;;;;;;;;5011391;28;20054;-70
2022/04/22 07:07:35;;;;;;;4.85;4.45;;;;;;;;;;5011372;28;20049;-70
2022/04/22 07:10:01;;;;;;;8.15;4.53;;;;;;;;;;5008410;28;20419;-71
2022/04/22 07:12:28;;;;;;;4.88;4.38;;;;;;;;;;5007045;28;20565;-72
2022/04/22 07:14:57;;;;;;;5.28;4.40;;;;;;;;;;5008889;28;20077;-70
2022/04/22 07:17:23;;;;;;;4.80;4.03;;;;;;;;;;4993227;28;20129;-71
2022/04/22 07:19:49;;;;;;;6.63;3.88;;;;;;;;;;5009777;28;20136;-71
2022/04/22 07:22:15;;;;;;;6.07;4.40;;;;;;;;;;5010611;28;20077;-72
2022/04/22 07:24:40;;;;;;;4.85;4.40;;;;;;;;;;4992985;28;20046;-70
2022/04/22 07:27:07;;;;;;;5.35;3.90;;;;;;;;;;5009687;28;20046;-70
2022/04/22 07:29:33;;;;;;;5.95;4.15;;;;;;;;;;4991054;28;20422;-70
2022/04/22 07:31:59;;;;;;;4.22;3.92;;;;;;;;;;5010733;28;20191;-71
2022/04/22 07:34:25;;;;;;;4.28;3.90;;;;;;;;;;5010197;28;20125;-70
2022/04/22 07:36:51;;;;;;;3.95;3.65;;;;;;;;;;5009905;28;20061;-70
2022/04/22 07:39:17;;;;;;;5.05;3.97;;;;;;;;;;5002894;28;20469;-70
2022/04/22 07:41:42;;;;;;;6.22;3.83;;;;;;;;;;5008128;28;20064;-70
2022/04/22 07:46:59;;;;;;;4.50;4.10;;;;;;;;;;5007250;28;20596;-70
2022/04/22 07:49:26;;;;;;;3.60;3.33;;;;;;;;;;5007680;28;20042;-71
2022/04/22 07:51:52;;;;;;;4.70;4.00;;;;;;;;;;5008863;28;20044;-70
2022/04/22 07:54:18;;;;;;;3.90;3.50;;;;;;;;;;5009233;28;20148;-71
2022/04/22 07:56:45;;;;;;;3.95;3.67;;;;;;;;;;5010536;28;20054;-71
2022/04/22 07:59:11;;;;;;;4.38;4.05;;;;;;;;;;5010014;28;20041;-70
2022/04/22 08:01:37;;;;;;;4.10;3.70;;;;;;;;;;5010605;28;20096;-70
2022/04/22 08:04:04;;;;;;;6.20;3.83;;;;;;;;;;5008006;28;20061;-71
2022/04/22 08:06:29;;;;;;;4.57;3.75;;;;;;;;;;5008863;28;20034;-71
2022/04/22 08:08:55;;;;;;;4.30;3.92;;;;;;;;;;5009758;28;20052;-71
2022/04/22 08:11:21;;;;;;;5.43;4.32;;;;;;;;;;4992138;28;20506;-70
2022/04/22 08:13:47;;;;;;;6.97;4.30;;;;;;;;;;4992195;28;20045;-70
2022/04/22 08:16:13;;;;;;;5.50;4.15;;;;;;;;;;4992260;28;20037;-71
2022/04/22 08:18:40;;;;;;;3.63;3.40;;;;;;;;;;5010021;28;20068;-71
2022/04/22 08:21:08;;;;;;;5.38;4.05;;;;;;;;;;5010470;28;20077;-71
2022/04/22 08:23:34;;;;;;;5.18;3.80;;;;;;;;;;4992370;28;20116;-69
2022/04/22 08:26:00;;;;;;;5.55;3.72;;;;;;;;;;5010353;28;20088;-71
2022/04/22 08:28:27;;;;;;;4.32;3.92;;;;;;;;;;5007742;28;20128;-71
2022/04/22 08:30:53;;;;;;;10.93;4.05;;;;;;;;;;5030019;28;20046;-71
2022/04/22 08:33:18;;;;;;;6.53;4.20;;;;;;;;;;5029825;28;20053;-71
2022/04/22 08:35:44;;;;;;;4.10;3.78;;;;;;;;;;5029780;28;20041;-71
2022/04/22 08:38:10;;;;;;;4.07;3.70;;;;;;;;;;5029876;28;20041;-70
2022/04/22 08:40:40;;;;;;;12.65;3.90;;;;;;;;;;5007594;28;20526;-70
2022/04/22 08:43:06;;;;;;;5.95;3.67;;;;;;;;;;5010034;28;20054;-70
2022/04/22 08:45:33;;;;;;;4.40;4.00;;;;;;;;;;5009784;28;20081;-70
2022/04/22 08:50:44;;;;;;;7.45;4.38;;;;;;;;;;5010822;28;20469;-70
2022/04/22 08:53:11;;;;;;;9.15;5.47;;;;;;;;;;5010271;28;20096;-71
2022/04/22 08:55:37;;;;;;;10.23;3.63;;;;;;;;;;5009751;28;20053;-71
2022/04/22 08:58:05;;;;;;;5.63;3.90;;;;;;;;;;5008576;28;20062;-72
2022/04/22 09:00:34;;;;;;;4.25;3.95;;;;;;;;;;5009797;28;20125;-71
2022/04/22 09:03:00;;;;;;;5.32;3.85;;;;;;;;;;4991915;28;20050;-71
2022/04/22 09:05:27;;;;;;;7.57;3.80;;;;;;;;;;5009335;28;20042;-70
2022/04/22 09:07:53;;;;;;;4.32;3.85;;;;;;;;;;5009883;28;20061;-70
2022/04/22 09:10:19;;;;;;;6.78;4.05;;;;;;;;;;5008425;28;20430;-71
2022/04/22 09:12:52;;;;;;;4.10;3.70;;;;;;;;;;5009770;28;20513;-70
2022/04/22 09:15:22;;;;;;;3.92;3.53;;;;;;;;;;5009442;28;20053;-71
2022/04/22 09:17:47;;;;;;;7.25;3.90;;;;;;;;;;5009854;28;20038;-71
2022/04/22 09:20:15;;;;;;;4.28;3.90;;;;;;;;;;5009489;28;20052;-71
2022/04/22 09:22:41;;;;;;;6.47;3.67;;;;;;;;;;5009270;28;20100;-71
2022/04/22 09:25:07;;;;;;;4.35;3.83;;;;;;;;;;5009349;28;20076;-71
2022/04/22 09:27:36;;;;;;;4.60;4.20;;;;;;;;;;5009307;28;20042;-72
2022/04/22 09:30:07;;;;;;;4.65;4.15;;;;;;;;;;5009155;28;20042;-71
2022/04/22 09:32:33;;;;;;;6.50;4.20;;;;;;;;;;5008447;28;20141;-71
2022/04/22 09:35:09;;;;;;;5.85;4.07;;;;;;;;;;5009353;28;20648;-71
2022/04/22 09:43:25;;;;;;;6.55;3.72;;;;;;;;;;5009166;28;20077;-71
2022/04/22 09:45:52;;;;;;;3.90;3.60;;;;;;;;;;5009011;28;20418;-71
2022/04/22 09:48:19;;;;;;;4.28;3.97;;;;;;;;;;5009221;28;20038;-71
2022/04/22 09:50:52;;;;;;;8.57;3.58;;;;;;;;;;5009126;28;20046;-71
2022/04/22 09:53:28;;;;;;;4.80;3.63;;;;;;;;;;5009328;28;20042;-71
2022/04/22 09:55:57;;;;;;;6.25;5.03;;;;;;;;;;5009380;28;20125;-72
2022/04/22 09:58:26;;;;;;;7.20;4.18;;;;;;;;;;5009285;28;20149;-71
2022/04/22 10:00:53;;;;;;;3.78;3.53;;;;;;;;;;5009591;28;20074;-71
2022/04/22 10:03:20;;;;;;;7.35;4.00;;;;;;;;;;5009761;28;20073;-71
2022/04/22 10:05:48;;;;;;;5.35;3.50;;;;;;;;;;4991515;28;20042;-71
2022/04/22 10:08:15;;;;;;;4.90;3.83;;;;;;;;;;4991750;28;20053;-72
2022/04/22 10:10:42;;;;;;;4.40;3.80;;;;;;;;;;5007574;28;20038;-71
2022/04/22 10:13:11;;;;;;;4.65;3.83;;;;;;;;;;5009038;28;20109;-72
2022/04/22 10:15:39;;;;;;;5.72;3.75;;;;;;;;;;5007644;28;20538;-71
2022/04/22 10:18:05;;;;;;;5.97;4.68;;;;;;;;;;5007887;28;20415;-72
2022/04/22 10:20:32;;;;;;;3.42;3.13;;;;;;;;;;4986787;28;20042;-72
2022/04/22 10:22:58;;;;;;;3.75;3.45;;;;;;;;;;4994336;28;20054;-71
2022/04/22 10:25:24;;;;;;;3.92;3.60;;;;;;;;;;4994367;28;20068;-72
2022/04/22 10:27:51;;;;;;;3.78;3.47;;;;;;;;;;5012323;28;20046;-72
2022/04/22 10:30:17;;;;;;;3.40;3.10;;;;;;;;;;5011064;28;20047;-73
2022/04/22 10:32:45;;;;;;;3.05;2.85;;;;;;;;;;5010744;28;20092;-71
2022/04/22 10:35:12;;;;;;;4.75;3.42;;;;;;;;;;5010878;28;20121;-69
2022/04/22 10:37:38;;;;;;;3.90;3.60;;;;;;;;;;5012359;28;20086;-73
2022/04/22 10:40:04;;;;;;;14.25;4.45;;;;;;;;;;5011815;28;20434;-73
2022/04/22 10:42:34;;;;;;;3.90;3.60;;;;;;;;;;5011827;28;20042;-72
2022/04/22 10:47:48;;;;;;;4.32;3.83;;;;;;;;;;5012034;28;20108;-70
2022/04/22 10:50:21;;;;;;;9.02;3.85;;;;;;;;;;5007496;28;20050;-71
2022/04/22 10:53:13;;;;;;;5.00;3.88;;;;;;;;;;5003098;28;20038;-72
2022/04/22 10:55:39;;;;;;;4.32;3.80;;;;;;;;;;4979727;28;20052;-72
2022/04/22 10:58:23;;;;;;;3.92;3.67;;;;;;;;;;5011586;28;20056;-72
2022/04/22 11:00:52;;;;;;;3.47;3.22;;;;;;;;;;5011663;28;20345;-73
2022/04/22 11:03:21;;;;;;;6.45;4.00;;;;;;;;;;5011809;28;20061;-72
2022/04/22 11:05:51;;;;;;;7.68;3.67;;;;;;;;;;5010741;28;20046;-72
2022/04/22 11:08:29;;;;;;;4.70;3.55;;;;;;;;;;5009857;28;20463;-72
2022/04/22 11:10:55;;;;;;;6.63;3.70;;;;;;;;;;4993367;28;20430;-73
2022/04/22 11:13:33;;;;;;;3.83;3.53;;;;;;;;;;5011073;28;20061;-72
2022/04/22 11:16:18;;;;;;;4.25;3.42;;;;;;;;;;5010949;28;20046;-71
2022/04/22 11:18:44;;;;;;;3.80;3.50;;;;;;;;;;5006405;28;20038;-72
2022/04/22 11:21:15;;;;;;;3.85;3.30;;;;;;;;;;5008905;28;20124;-71
2022/04/22 11:23:43;;;;;;;4.85;3.92;;;;;;;;;;5008294;28;20054;-72
2022/04/22 11:26:10;;;;;;;4.75;3.90;;;;;;;;;;5010724;28;20258;-72
2022/04/22 11:28:37;;;;;;;4.05;3.70;;;;;;;;;;4992897;28;20041;-72
2022/04/22 11:31:07;;;;;;;6.47;4.30;;;;;;;;;;4993376;28;20514;-72
2022/04/22 11:33:44;;;;;;;5.77;3.73;;;;;;;;;;5007953;28;20065;-72
2022/04/22 11:36:10;;;;;;;4.72;4.10;;;;;;;;;;4991700;28;20041;-70
2022/04/22 11:38:44;;;;;;;8.82;6.45;;;;;;;;;;5007557;28;20041;-72
2022/04/22 11:41:13;;;;;;;5.82;4.53;;;;;;;;;;4990384;28;20064;-73
2022/04/22 11:43:39;;;;;;;5.20;4.47;;;;;;;;;;4988474;28;20574;-73
2022/04/22 11:46:05;;;;;;;6.53;4.40;;;;;;;;;;5010559;28;20506;-72
2022/04/22 11:48:31;;;;;;;7.25;4.80;;;;;;;;;;5008255;28;20061;-72
2022/04/22 11:50:58;;;;;;;12.07;4.70;;;;;;;;;;4992412;28;20140;-72
2022/04/22 11:53:26;;;;;;;5.38;4.32;;;;;;;;;;4993195;28;20037;-72
2022/04/22 11:55:52;;;;;;;7.05;6.35;;;;;;;;;;5008881;28;20046;-71
2022/04/22 11:58:24;;;;;;;12.13;5.82;;;;;;;;;;4993160;28;20085;-72
2022/04/22 12:06:20;;;;;;;4.97;4.57;;;;;;;;;;4995915;28;20037;-71
2022/04/22 12:08:56;;;;;;;10.65;4.35;;;;;;;;;;5008655;28;20512;-72
2022/04/22 12:11:22;;;;;;;20.35;15.07;;;;;;;;;;5015947;28;20045;-73
2022/04/22 12:13:48;;;;;;;6.88;3.95;;;;;;;;;;5018363;28;20034;-72
2022/04/22 12:16:20;;;;;;;6.32;3.90;;;;;;;;;;5018692;28;20056;-72
2022/04/22 12:18:47;;;;;;;4.40;3.38;;;;;;;;;;5002382;28;20040;-72
2022/04/22 12:21:13;;;;;;;5.30;4.03;;;;;;;;;;4967883;28;20480;-72
2022/04/22 12:23:41;;;;;;;7.75;3.47;;;;;;;;;;5013449;28;20117;-73
2022/04/22 12:26:34;;;;;;;6.28;4.18;;;;;;;;;;5011827;28;20052;-73
2022/04/22 12:29:10;;;;;;;12.32;5.43;;;;;;;;;;5010621;28;20582;-73
2022/04/22 12:31:43;;;;;;;4.10;3.80;;;;;;;;;;5009944;28;20046;-72
2022/04/22 12:34:09;;;;;;;4.72;3.60;;;;;;;;;;5010016;28;20073;-73
2022/04/22 12:36:54;;;;;;;7.57;3.72;;;;;;;;;;5007942;28;20042;-73
2022/04/22 12:39:32;;;;;;;5.35;3.20;;;;;;;;;;5009905;28;20065;-73
2022/04/22 12:41:58;;;;;;;6.35;4.13;;;;;;;;;;4990712;28;20104;-73
2022/04/22 12:44:24;;;;;;;11.95;8.32;;;;;;;;;;4988297;28;20046;-73
2022/04/22 12:52:23;;;;;;;13.40;8.30;;;;;;;;;;5009723;28;20477;-72
2022/04/22 12:54:49;;;;;;;;;;;;;;;;;;4998148;28;20101;-72
2022/04/22 12:57:16;;;;;;;6.43;4.93;;;;;;;;;;5008144;28;19925;-72
2022/04/22 12:59:43;;;;;;;5.05;4.20;;;;;;;;;;4988545;28;20729;-72
2022/04/22 13:02:09;;;;;;;10.45;4.13;;;;;;;;;;5004544;28;20049;-73
2022/04/22 13:04:55;;;;;;;5.10;4.60;;;;;;;;;;5010529;28;20108;-72
2022/04/22 13:07:21;;;;;;;9.07;5.13;;;;;;;;;;4999513;28;20402;-72
2022/04/22 13:09:48;;;;;;;5.65;3.78;;;;;;;;;;4988346;28;20538;-71
2022/04/22 13:12:14;;;;;;;6.47;4.18;;;;;;;;;;4989823;28;20678;-72
2022/04/22 13:14:40;;;;;;;7.20;4.93;;;;;;;;;;4988816;28;20412;-71
2022/04/22 13:17:06;;;;;;;6.07;3.75;;;;;;;;;;4973200;28;20038;-72
2022/04/22 13:19:33;;;;;;;5.40;4.20;;;;;;;;;;4993561;28;20049;-71
2022/04/22 13:21:58;;;;;;;21.38;12.05;;;;;;;;;;5009329;28;20053;-71
2022/04/22 13:24:24;;;;;;;15.13;7.60;;;;;;;;;;5009266;28;20057;-70
2022/04/22 13:26:53;;;;;;;6.50;5.32;;;;;;;;;;5008725;28;20112;-71
2022/04/22 13:29:19;;;;;;;8.27;4.60;;;;;;;;;;5009377;28;20417;-70
2022/04/22 13:31:45;;;;;;;9.73;4.50;;;;;;;;;;5009162;28;20162;-71
2022/04/22 13:34:11;;;;;;;8.73;4.47;;;;;;;;;;5009188;28;20502;-71
2022/04/22 13:36:37;;;;;;;4.93;4.40;;;;;;;;;;4990243;28;20581;-71
2022/04/22 13:39:03;;;;;;;6.75;4.95;;;;;;;;;;4998887;28;20038;-71
2022/04/22 13:41:29;;;;;;;11.20;4.93;;;;;;;;;;4982082;28;20137;-71
2022/04/22 13:43:55;;;;;;;14.98;6.20;;;;;;;;;;5001031;28;20145;-72
2022/04/22 13:54:34;;;;;;;8.15;5.82;;;;;;;;;;4992829;28;20066;-71
2022/04/22 13:57:01;;;;;;;9.15;5.05;;;;;;;;;;5011175;28;20481;-72
2022/04/22 13:59:27;;;;;;;6.95;5.20;;;;;;;;;;5012969;28;20073;-71
2022/04/22 14:01:53;;;;;;;6.43;5.38;;;;;;;;;;5012524;28;20506;-71
2022/04/22 14:04:19;;;;;;;11.60;7.57;;;;;;;;;;5006282;28;20057;-72
2022/04/22 14:06:44;;;;;;;8.90;5.20;;;;;;;;;;4991562;28;20038;-71
2022/04/22 14:09:10;;;;;;;5.18;4.68;;;;;;;;;;4993124;28;20046;-71
2022/04/22 14:11:37;;;;;;;5.07;3.95;;;;;;;;;;4992663;28;20042;-71
2022/04/22 14:14:03;;;;;;;8.55;6.25;;;;;;;;;;4992954;28;20073;-71
2022/04/22 14:16:29;;;;;;;7.40;4.53;;;;;;;;;;4975193;28;20089;-70
2022/04/22 14:18:56;;;;;;;8.10;6.38;;;;;;;;;;4975665;28;20054;-71
2022/04/22 14:21:22;;;;;;;13.20;8.93;;;;;;;;;;4975525;28;20042;-72
2022/04/22 14:23:49;;;;;;;6.68;5.15;;;;;;;;;;4999962;28;20141;-71
2022/04/22 14:26:15;;;;;;;6.20;4.68;;;;;;;;;;5006596;28;20033;-71
2022/04/22 14:28:41;;;;;;;6.35;4.50;;;;;;;;;;4994600;28;20491;-71
2022/04/22 14:31:08;;;;;;;5.13;4.63;;;;;;;;;;5009256;28;20050;-71
2022/04/22 14:33:34;;;;;;;5.10;4.60;;;;;;;;;;5012050;28;20046;-71
2022/04/22 14:36:02;;;;;;;4.85;4.43;;;;;;;;;;4992474;28;20026;-70
2022/04/22 14:38:28;;;;;;;9.02;6.05;;;;;;;;;;5010487;28;20048;-71
2022/04/22 14:40:54;;;;;;;10.88;6.72;;;;;;;;;;5001479;28;20487;-71
2022/04/22 14:43:20;;;;;;;10.93;6.07;;;;;;;;;;4997552;28;20097;-71
2022/04/22 14:45:45;;;;;;;6.05;4.57;;;;;;;;;;5009819;28;20134;-72
2022/04/22 14:48:11;;;;;;;9.43;5.70;;;;;;;;;;5009511;28;20128;-72
2022/04/22 14:50:37;;;;;;;5.85;5.38;;;;;;;;;;5010781;28;20049;-71
2022/04/22 14:53:03;;;;;;;11.85;6.50;;;;;;;;;;5010954;28;20181;-72
2022/04/22 14:55:29;;;;;;;7.70;6.68;;;;;;;;;;4992575;28;20103;-71
2022/04/22 14:57:55;;;;;;;15.77;6.25;;;;;;;;;;5009003;28;20061;-71
2022/04/22 15:00:21;;;;;;;8.98;6.05;;;;;;;;;;4993303;28;20488;-71
2022/04/22 15:02:47;;;;;;;14.70;8.88;;;;;;;;;;4993062;28;20064;-72
2022/04/22 15:05:13;;;;;;;8.38;5.85;;;;;;;;;;5010824;28;20038;-72
2022/04/22 15:07:40;;;;;;;7.82;5.82;;;;;;;;;;5010218;28;20104;-72
2022/04/22 15:10:05;;;;;;;8.18;6.03;;;;;;;;;;4991987;28;20047;-72
2022/04/22 15:12:32;;;;;;;10.45;5.53;;;;;;;;;;5009648;28;20186;-71
2022/04/22 15:14:58;;;;;;;6.65;5.78;;;;;;;;;;4977183;28;20096;-72
2022/04/22 15:25:39;;;;;;;8.10;5.80;;;;;;;;;;4972921;28;20503;-71
2022/04/22 15:28:05;;;;;;;7.65;5.68;;;;;;;;;;5010573;28;20108;-71
2022/04/22 15:30:49;;;;;;;9.02;6.43;;;;;;;;;;5009783;28;20037;-71
2022/04/22 15:33:15;;;;;;;18.25;7.63;;;;;;;;;;4992915;28;20046;-71
2022/04/22 15:35:41;;;;;;;12.98;7.03;;;;;;;;;;5011046;28;20042;-71
2022/04/22 15:38:07;;;;;;;9.52;7.22;;;;;;;;;;5009311;28;20034;-71
2022/04/22 15:40:33;;;;;;;9.55;7.03;;;;;;;;;;5009993;28;20100;-71
2022/04/22 15:42:59;;;;;;;14.90;7.45;;;;;;;;;;5010270;28;20045;-71
2022/04/22 15:45:25;;;;;;;17.42;7.15;;;;;;;;;;5010400;28;20060;-71
2022/04/22 15:47:51;;;;;;;11.18;7.22;;;;;;;;;;5007313;28;20065;-71
2022/04/22 15:50:17;;;;;;;9.48;6.72;;;;;;;;;;5006277;28;20069;-71
2022/04/22 15:52:44;;;;;;;13.63;7.97;;;;;;;;;;4991686;28;20430;-71
2022/04/22 15:55:10;;;;;;;8.43;7.45;;;;;;;;;;5008414;28;20084;-71
2022/04/22 15:57:38;;;;;;;10.95;8.35;;;;;;;;;;4992312;28;20081;-72